« 2020年7月 | トップページ | 2020年9月 »

2020年8月

2020/08/31

### RJNT log 202008 ###

### RJNT log 202008 ###

-- 2020/8/31 mon -----

RJTT-RJNT
ANA   /312 can
ANA313/316 JA59AN

ANA315/    can
ANA   /320 can
ANA319/322 JA65AN
ANA321     can

RJCC-RJNT
ANA    /1181 can
ANA1182      can

RCTP-RJNT
CAL170/171 can

ZYTL-RJNT
CSN613/614 can

RJTT-RJNW
ANA747/748 JA219A
ANA749/750 can

-- 2020/8/30 sun -----

RJTT-RJNT
ANA   /312 can
ANA313/316 JA72AN
ANA315/    can
ANA   /320 can
ANA319/322 JA72AN
ANA321     can

RJCC-RJNT
ANA    /1181 can
ANA1182      can

RCTP-RJNT
CAL170/171 can

RJTT-RJNW
ANA747/748 JA220A
ANA749/750 can

-- 2020/8/29 sat -----

RJTT-RJNT
ANA   /312 can
ANA313/316 JA87AN
ANA315/    can
ANA   /320 can
ANA319/322 JA72AN
ANA321     can

RJCC-RJNT
ANA    /1181 can
ANA1182      can

ZYTL-RJNT
CSN613/614 can

ZSPD-RJNT
CSH825/826 can


RJTT-RJNW
ANA747/748 JA216A
ANA749/750 can

-- 2020/8/28 fri -----

RJTT-RJNT
ANA   /312 can
ANA313/316 JA65AN
ANA315/    can
ANA   /320 can
ANA319/322 JA18AN
ANA321     can

RJCC-RJNT
ANA    /1181 can
ANA1182      can

RCTP-RJNT
CAL170/171 can

RJTT-RJNW
ANA747/748 JA213A
ANA749/750 can

-- 2020/8/27 thu -----

RJTT-RJNT
ANA   /312 can
ANA313/316 JA74AN

ANA315/    can
ANA   /320 can
ANA319/322 JA61AN
ANA321     can

RJCC-RJNT
ANA    /1181 can
ANA1182      can

RCTP-RJNT
CAL170/171 can

RJTT-RJNW
ANA747/748 JA215A
ANA749/750 can

RJOW-RJNW-RJNS
JA16AC

-- 2020/8/26 wed -----

RJTT-RJNT
ANA   /312 can
ANA313/316 JA74AN
ANA315/    can
ANA   /320 can
ANA319/322 JA87AN
ANA321     can

RJCC-RJNT
ANA    /1181 can
ANA1182      can

ZYTL-RJNT
CSN613/614 can

RJTT-RJNW
ANA747/748 JA222A
ANA749/750 can

-- 2020/8/25 tue -----

RJTT-RJNT
ANA   /312 can
ANA313/316 JA56AN
ANA315/    can
ANA   /320 can
ANA319/322 JA56AN
ANA321     can

RJCC-RJNT
ANA    /1181 can 
ANA1182      can

ZSPD-RJNT
CSH825/826 can

RJTT-RJNW
ANA747/748 JA211A
ANA749/750 can

-- 2020/8/24 mon -----

RJTT-RJNT
ANA   /312 can
ANA313/316 JA51AN

ANA315/    can
ANA   /320 can
ANA319/322 JA89AN
ANA321     can

RJCC-RJNT
ANA    /1181 can
ANA1182      can

RCTP-RJNT
CAL170/171 can

ZYTL-RJNT
CSN613/614 can

RJTT-RJNW
ANA747/748 JA211A
ANA749/750 can

-- 2020/8/23 sun -----

RJTT-RJNT
ANA   /312 can
ANA313/316 JA80AN
ANA315/    can
ANA   /320 can
ANA319/322 JA51AN
ANA321     can

RJCC-RJNT
ANA    /1181 can
ANA1182      can

RCTP-RJNT
CAL170/171 can

RJTT-RJNW
ANA747/748 JA216A
ANA749/750 can

-- 2020/8/22 sat -----

RJTT-RJNT
ANA   /312 can
ANA313/316 JA59AN
ANA315/    can
ANA   /320 can
ANA319/322 JA78AN
ANA321     can

RJCC-RJNT
ANA    /1181 can
ANA1182      can

ZYTL-RJNT
CSN613/614 can

ZSPD-RJNT
CSH825/826 can


RJTT-RJNW
ANA747/748 JA214A
ANA749/750 can

-- 2020/8/21 fri -----

RJTT-RJNT
ANA   /312 can
ANA313/316 JA64AN
ANA315/    can
ANA   /320 can
ANA319/322 JA63AN
ANA321     can

RJCC-RJNT
ANA    /1181 can
ANA1182      can

RCTP-RJNT
CAL170/171 can

RJTT-RJNW
ANA747/748 JA214A
ANA749/750 can

RJGG-RJNW-RJGG
JA012G

RJNA-RJNW-RJSR
JA86GR

-- 2020/8/20 thu -----

RJTT-RJNT
ANA   /312 can
ANA313/316  JA56AN

ANA315/    can
ANA   /320 can
ANA319/322 JA51AN
ANA321     can

RJCC-RJNT
ANA    /1181 can
ANA1182      can

RCTP-RJNT
CAL170/171 can

RJNS-RJNT-RJSI
JA16AC

RJTT-RJNW
ANA747/748 JA217A
ANA749/750 can

-- 2020/8/19 wed -----

RJTT-RJNT
ANA   /312 can
ANA313/316 JA63AN
ANA315/    can
ANA   /320 can
ANA319/322 JA62AN
ANA321     can

RJCC-RJNT
ANA    /1181 can
ANA1182      can

ZYTL-RJNT
CSN613/614 can

RJAF-RJNT-????
JA359C

RJGG-RJNT-RJNK
JA012G

RJTT-RJNW
ANA747/748 JA216A
ANA749/750 can

-- 2020/8/18 tue -----

RJTT-RJNT
ANA   /312 can
ANA313/316 JA81AN
ANA315/    can
ANA   /320 can
ANA319/322 JA217A
ANA321     can

RJCC-RJNT
ANA    /1181 can 
ANA1182      can

ZSPD-RJNT
CSH825/826 can

RJTT-RJNW
ANA747/748 JA222A
ANA749/750 can

-- 2020/8/17 mon -----

RJTT-RJNT
ANA   /312 can
ANA313/316 JA222A

ANA315/    JA66AN
ANA   /320 JA66AN
ANA319/322 JA213A
ANA321     can

RJCC-RJNT
ANA    /1181 JA66AN
ANA1182      JA66AN

RCTP-RJNT
CAL170/171 can

ZYTL-RJNT
CSN613/614 can

RJTT-RJNW
ANA747/748 JA219A
ANA749/750 JA73AN

-- 2020/8
/16 sun -----

RJTT-RJNT
ANA   /312 can
ANA313/316 JA219A
ANA315/    JA65AN
ANA   /320 JA65AN
ANA319/322 JA215A
ANA321     can

RJCC-RJNT
ANA    /1181 JA65AN
ANA1182      JA65AN

RCTP-RJNT
CAL170/171 can

RJTT-RJNW
ANA747/748 JA214A
ANA749/750 JA211A

-- 2020/8/15 sat -----

RJTT-RJNT
ANA   /312 can
ANA313/316 JA214A
ANA315/    JA77AN
ANA   /320 JA77AN
ANA319/322 JA216A
ANA321     can

RJCC-RJNT
ANA    /1181 JA77AN
ANA1182      JA77AN

ZYTL-RJNT
CSN613/614 can

ZSPD-RJNT
CSH825/826 can


RJTT-RJNW
ANA747/748 JA213A
ANA749/750 JA222A

-- 2020/8/14 fri -----

RJTT-RJNT
ANA   /312 can
ANA313/316 JA213A
ANA315/    JA83AN
ANA   /320 JA83AN
ANA319/322 JA222A
ANA321     can

RJCC-RJNT
ANA    /1181 JA83AN
ANA1182      JA83AN

RCTP-RJNT
CAL170/171 can

RJTT-RJNW
ANA747/748 JA219A
ANA749/750 JA216A

-- 2020/8/13 thu -----

RJTT-RJNT
ANA   /312 can
ANA313/316 JA219A
ANA315/    JA82AN
ANA   /320 JA82AN
ANA319/322 JA213A
ANA321     can

RJCC-RJNT
ANA    /1181 JA82AN
ANA1182      JA82AN

RCTP-RJNT
CAL170/171 can

RJTT-RJNW
ANA747/748 JA216A
ANA749/750 JA211A

-- 2020/8/12 wed -----

RJTT-RJNT
ANA   /312 can
ANA313/316 JA216A
ANA315/    JA74AN
ANA   /320 JA74AN
ANA319/322 JA01AN
ANA321     can

RJCC-RJNT
ANA    /1181 JA74AN
ANA1182      JA74AN

ZYTL-RJNT
CSN613/614 can

RJSK-RJNT-RJNA
JA04AA

RJTT-RJNW
ANA747/748 JA213A
ANA749/750 JA219A

-- 2020/8/11 tue -----

RJTT-RJNT
ANA   /312 can
ANA313/316 JA213A
ANA315/    JA76AN
ANA   /320 JA76AN
ANA319/322 JA87AN
ANA321     can

RJCC-RJNT
ANA    /1181 JA76AN 
ANA1182      JA76AN

ZSPD-RJNT
CSH825/826 can

RJNT-ohno-fukuiRCH-RJNT
JA119W

RJTT-RJNW
ANA747/748 JA212A
ANA749/750 JA214A

-- 2020/8/10 mon -----

RJTT-RJNT
ANA   /312 can
ANA313/316 JA212A

ANA315/    JA82AN
ANA   /320 JA82AN
ANA319/322 JA214A
ANA321     can

RJCC-RJNT
ANA    /1181 JA82AN
ANA1182      JA82AN

RCTP-RJNT
CAL170/171 can

ZYTL-RJNT
CSN613/614 can

RJTT-RJNW
ANA747/748 JA216A
ANA749/750 JA219A

-- 2020/8/9 sun -----

RJTT-RJNT
ANA   /312 can
ANA313/316 JA216A
ANA315/    JA57AN
ANA   /320 JA57AN
ANA319/322 JA212A
ANA321     can

RJCC-RJNT
ANA    /1181 JA57AN
ANA1182      JA57AN

RCTP-RJNT
CAL170/171 can

RJTT-RJNW
ANA747/748 JA213A
ANA749/750 JA01VA

-- 2020/8/8 sat -----

RJTT-RJNT
ANA   /312 can
ANA313/316 JA216A
ANA315/    JA64AN
ANA   /320 JA64AN
ANA319/322 JA211A
ANA321     can

RJCC-RJNT
ANA    /1181 JA64AN
ANA1182      JA64AN

ZYTL-RJNT
CSN613/614 can

ZSPD-RJNT
CSH825/826 can


RJTT-RJNW
ANA747/748 JA212A
ANA749/750 JA01VA

-- 2020/8/7 fri -----

RJTT-RJNT
ANA   /312 can
ANA313/316 JA219A

ANA315/    JA73AN
ANA   /320 JA73AN
ANA319/322 JA222A
ANA321     can

RJCC-RJNT
ANA    /1181 JA73AN
ANA1182      JA73AN

RCTP-RJNT
CAL170/171 can

RJTT-RJNW
ANA747/748 JA216A 
ANA749/750 JA03VA

-- 2020/8/6 thu -----

RJTT-RJNT
ANA   /312 can
ANA313/316 JA60AN
ANA315/    can
ANA   /320 can
ANA319/322 JA18AN
ANA321     can

RJCC-RJNT
ANA    /1181 can
ANA1182      can

RCTP-RJNT
CAL170/171 can

RJTT-RJNW
ANA747/748 JA219A
ANA749/750 can

-- 2020/8/5 wed -----

RJTT-RJNT
ANA   /312 can
ANA313/316 JA51AN
ANA315/    can
ANA   /320 can
ANA319/322 JA79AN
ANA321     can

RJCC-RJNT
ANA    /1181 can
ANA1182      can

ZYTL-RJNT
CSN613/614 can

RJTT-RJNW
ANA747/748 JA213A
ANA749/750 can

-- 2020/8/4 tue -----

RJTT-RJNT
ANA   /312 can
ANA313/316 JA83AN
ANA315/    can
ANA   /320 can
ANA319/322 JA68AN
ANA321     can

RJCC-RJNT
ANA    /1181 can
ANA1182      can

ZSPD-RJNT
CSH825/826 can

RJTF-RJNT
JA119W

RJTT-RJNW
ANA747/748 JA211A
ANA749/750 can

-- 2020/8/3 mon -----

RJTT-RJNT
ANA   /312 can
ANA313/316 JA53AN
ANA315/    can
ANA   /320 can
ANA319/322 JA84AN
ANA321     can

RJCC-RJNT
ANA    /1181 can
ANA1182      can

ZYTL-RJNT
CSN613/614 can

RCTP-RJNT
CAL170/170 can

RJTT-RJNW
ANA747/748 JA219A
ANA749/750 can

-- 2020/8/2 sun -----

RJTT-RJNT
ANA   /312 can
ANA313/316 JA70AN
ANA315/    can
ANA   /320 can
ANA319/322 JA83AN
ANA321     can

RJCC-RJNT
ANA    /1181 can
ANA1182      can

RCTP-RJNT
CAL170/171 can

RJTT-RJNW
ANA747/748 JA222A
ANA749/750 can

-- 2020/8
/1 sat -----

RJTT-RJNT
ANA   /312 can
ANA313/316 JA51AN

ANA315/    can
ANA   /320 can
ANA319/322 JA68AN
ANA321     can

RJCC-RJNT
ANA    /1181 can
ANA1182      can

ZYTL-RJNT
CSN613/614 can

ZSPD-RJNT
CSH825/826 can

RJTT-RJNT-RJTT
JA002A T/G


RJTT-RJNW
ANA747/748 JA212A
ANA749/750 can

-- 2020/08 --

| | コメント (0)

2020/08/29

定点 富山空港 2020/8/29 sat

RJNT 282300Z VRB02KT 9999 FEW030 SCT090 32/24 Q1011

20200829_rjnt_00sea

だっじゃ、こんなもんつくつたのはー

20200829_rjnt_01pl04

PL04「やひこ」さん航海

20200829_rjnt_02ja87an

ANA313 RJTT-RJNT JA87AN B737-8AL

RJNT 290000Z 33003KT 280V030 9999 FEW030 32/23 Q1011

20200829_rjnt_03ja87an

ANA316 RJNT-RJTT JA87AN B737-8AL

20200829_rjnt_04himawari

向日葵さんも、ぐったり

20200829_rjnt_05ja6515

JA6515↑ AS350B3 AKF

RJNT 290100Z VRB02KT 9999 FEW030 33/24 Q1011

20200829_rjnt_06ja11aj

JA11AJ C208A ASK

JA829Dさんも所在

 

 

| | コメント (0)

2020/08/26

定点 富山空港 2020/8/26 wed

今朝は、早朝から捜索事案が入って大忙しの防災さん。

RJNT 260100Z VRB04KT 9999 FEW030 33/24 Q1010

20200826_rjnt_00ja119w

JA119W AW139 富山県消防防災

本日3回目の捜索から帰ってきたばかり。

20200826_rjnt_01ja6515

JA6515↑ AS350B3 AKF

RJNT 260200Z 35007KT 300V030 9999 FEW030 34/23 Q1010

20200826_rjnt_02ja6266

初見のR66さんが立ち寄っていきました。

20200826_rjnt_03ja6266

JA6266 R66 ALP

20200826_rjnt_04ja916a

搭載海保さんがやってきました。

20200826_rjnt_05ja916a

T/G

20200826_rjnt_06ja916a

ストップ&ゴー やわ

20200826_rjnt_07ja916a

20200826_rjnt_08ja916a

20200826_rjnt_09ja916a

JA916A↓ S-76D JCG PLH08「えちご」搭載「みさご」

RJNT 260300Z 36008KT 9999 FEW035 35/24 Q1009

20200826_rjnt_10ja829d

JA829D↓ R66 DAK

###

 

###

20200826_rjnt_11ja11aj

今日も、フェスティバル

20200826_rjnt_12ja6512

JA6512↓ AS350B3 AKF

20200826_rjnt_13ja119w

JA119W↑ 本日4回目の緊急運航

RJNT 260400Z 36009KT 9999 FEW035 35/23 Q1009

20200826_rjnt_14ja6515

JA6515↑

RJNT 260500Z 36009KT 9999 FEW035 35/22 Q1009

この間に「みさご」さんは、お帰りに

20200826_rjnt_15ja6512

JA6512↑

20200826_rjnt_16ja119w

JA119W↓ 剣岳での救難でした。

20200826_rjnt_17ja119w

「つるぎ」さん休みに入ったら、いきなり「アルペン特急」

20200826_rjnt_18ja13aj

JA13AJ↓ C208 ASK

測量隊は、まだまだ大忙し

 

| | コメント (0)

2020/08/25

定点 富山空港 2020/8/25 tue

本日は、沖縄にいる台風8号に伴うフェーンで高温予想。

RJNT 242300Z 17007KT 110V220 9999 FEW030 SCT/// 30/21 Q1008

20200825_rjnt_00ship

いつもなにげに見ている作業船。今日は、たくさんのテトラポットを載せて国土保全。

20200825_rjnt_01ja56an

ANA313 RJTT-RJNT JA56AN B737-881

RJNT 250000Z 19008KT 9999 FEW030 SCT/// 32/22 Q1008

20200825_rjnt_02ja139t

JA139T↑ AW139 富山県警察 骨休めにお出かけの予定でしたが・・

20200825_rjnt_03ja56an

20200825_rjnt_04ja56an

ANA316 RJNT-RJTT JA56AN B737-881

20200825_rjnt_05ja6515

JA6515 AS350B3 AKF

20200825_rjnt_06ja139t

おやおや帰ってきてしまいました。

###

 

###

20200825_rjnt_07ja139t

一旦、格納庫へ

20200825_rjnt_08ja119w

今日の「とやま」さんは、お偉いさんフライト。

20200825_rjnt_09ja119w

JA119W↓ AW139 富山県消防防災

RJNT 250100Z 19005KT 130V250 9999 FEW030 SCT/// 33/22 Q1008

20200825_rjnt_10ja119w

恒例の記念撮影

20200825_rjnt_11ja9785

ともえさん到着

20200825_rjnt_12ja9785

JA9785 AS350B TKB

20200825_rjnt_13ja9878

JA9878 AS350B THK

20200825_rjnt_14ja11aj

JA11AJ C208A ASK

つくばさんの後に到着

RJNT 250200Z 35006KT 300V020 9999 FEW030 SCT/// 35/22 Q1008

20200825_rjnt_15ja829d

JA829D↓ R66 DAK

こちらも、測量の常連さん

この間に所要をしていたら、「つるぎ」さん東京にお出かけになりました。

20200825_rjnt_16ja13aj

JA13AJ↓ C208 ASK

RJNT 250300Z 36008KT 320V020 9999 FEW030 SCT/// 35/22 Q1007

20200825_rjnt_17ja829d

JA829D↑

RJNT 250400Z 01011KT 9999 FEW035 SCT/// 35/21 Q1007

20200825_rjnt_18ja6512

JA6512 AS350B3 AKF

20200825_rjnt_19ja9785

JA9785↓

20200825_rjnt_20ja6512

JA6512↑

釣り客で賑わっている河原を後に、撤収

午後、「とやま」さんが、広域防災センターへお出かけでした。

 

| | コメント (0)

2020/08/22

富山県消防防災ヘリコプター水難救助訓練 上市町 2020/8/18 tue

酷暑が続く夏の昼下がり、新消防防災ヘリコプター「とやま」による初めての水難救助訓練が実施されました。

RJNT 180400Z 36009KT 9999 FEW030 BKN/// 31/24 Q1012

20200818_kami2_00ja119w

井上陽水の「少年時代」を彷彿するような、夏空のダムサイト。

20200818_kami2_01ja119w

富山空港から10分で、「とやま」さんがやって来ました。

20200818_kami2_02ja119w

空中消火関係の訓練で何度も来ているので、すぐアプローチに入ります。

20200818_kami2_03ja119w

高度処理をして、南側から訓練場にアプローチ

20200818_kami2_04ja119w

RJNT 180500Z 36009KT 9999 FEW030 BKN/// 32/23 Q1011

20200818_kami2_05ja119w

最初に要救助者役を投入

20200818_kami2_06ja119w

一周して、救助シーケンスに入ります。

20200818_kami2_07ja119w

救助員をホイストで降ろしながら、要救助者に近づきます。まるで、空中サーカスの様。

20200818_kami2_08ja119w

要救助者の傍らに着水。この辺が技ありですかね。

20200818_kami2_09ja119w

要救助者に手際よくハーネスを廻して・・

20200818_kami2_10ja119w

吊り上げ

20200818_kami2_11ja119w

20200818_kami2_12ja119w

収容。この後再度要救を投入して、吊り上げ救助。吊り上げたまま、陸地にホイストで降ろして、一ソーティが終了です。

20200818_kami2_13ja119w

一回目が終わって、一旦着陸。

20200818_kami2_14ja119w

20200818_kami2_15ja119w

ワッペンは119Wになってますが、隊長さんのヘルメットに6768。

20200818_kami2_16ja119w

訓練要員の交代して、二回目へ

20200818_kami2_17ja119w

プロペラからペイパーが出ています。

20200818_kami2_18ja119w

二回目要救ドボン

20200818_kami2_19ja119w

救助アプローチ

20200818_kami2_20ja119w

吊り上げたまま、陸地へ

20200818_kami2_21ja119w

ホイスト降下

20200818_kami2_22ja119w

隊員のヘルメットカメラには、どんな映像が?

20200818_kami2_23ja119w

着地

20200818_kami2_24ja119w

交代に着陸

20200818_kami2_25ja119w

###whitewing681さんの動画###

###

三回目訓練へ離陸

20200818_kami2_26ja119w

20200818_kami2_27ja119w

別のアングルから

20200818_kami2_28ja119w

20200818_kami2_29ja119w

腰に無線機を装備していますが、水没しても大丈夫?

20200818_kami2_30ja119w

手際よく収容

20200818_kami2_31ja119w

20200818_kami2_32ja119w

最後の投入

20200818_kami2_33ja119w

要救の傍にいるのは、安全要員で、もしもの場合に備えて、浮き輪を持って待機しています。

20200818_kami2_34ja119w

20200818_kami2_35ja119w

20200818_kami2_36ja119w

20200818_kami2_37ja119w

無事、3回の救出訓練が終わり・・

20200818_kami2_38ja119w

20200818_kami2_39ja119w

ファウエルへ

20200818_kami2_40ja119w

最後は盛大なお手振りで、お別れです。

20200818_kami2_41ja119w

活躍のないことを、お祈りいたします。

もしもの場合の消防防災航空隊です。

夏が過ぎ、風あざみ♪

| | コメント (0)

2020/08/21

定点 富山空港 2020/8/21 fri

本日も酷暑日が予報されている朝。アジーと言いながらも、青空眺めます。

RJNT 202300Z VRB01KT 9999 FEW010 28/25 Q1013

20200821_rjnt_00ja64an

ANA313 RJTT-RJNT JA64AN B737-881

RJNT 210000Z VRB02KT 9999 FEW015 30/26 Q1013

20200821_rjnt_01ja64an

ANA316 RJNT-RJTT JA64AN B737-881

RJNT 210100Z 32005KT 280V360 9999 FEW025 32/25 Q1013

20200821_rjnt_02fvc

なにやら、寄り合い中

20200821_rjnt_03ja11aj

JA11AJ↓ C208A ASK

20200821_rjnt_04ja11aj

しばらく富山ベースで測量中。朝にはJA13AJさんもいました。

20200821_rjnt_05fvc

南部出張所のポンプと救急が引き上げます。

20200821_rjnt_06ja9878

JA9878↓ AS350B THK

20200821_rjnt_07h60

H60→ 直上通過して小松へ F41

20200821_rjnt_08ja139t

JA139T↑ AW139 富山県警察 60さんの下を離陸

RJNT 210200Z VRB02KT 9999 FEW030 32/24 Q1013

20200821_rjnt_09ja139t

山から直接、富大病院へオーバーフィールド

###

 

###

20200821_rjnt_10ja139t

お疲れ様です。

20200821_rjnt_11ja001x

JA001X C172S 2回T/Gして着陸

20200821_rjnt_12ja6515

JA6515↓ AS350B3 AKF

RJNT 210300Z VRB01KT 9999 FEW025 SCT035 33/25 Q1012

20200821_rjnt_13ja879d

JA829D↓ R66 DAK

RJNT 210400Z 35006KT 290V030 9999 FEW025 SCT035 34/25 Q1012

20200821_rjnt_14ja6515

JA6515↑

20200821_rjnt_15ja879d

JA829D↑

20200821_rjnt_16ja119w

JA119W↑ AW139 富山県消防防災

| | コメント (0)

2020/08/19

定点 富山空港 2020/8/19 wed

夏空ですが、空気が乾燥していて、空の透明度が高い朝です。朝方より、青いのやら赤いのやら、測量屋さんやらが、賑やかに飛び回っていますが、家事所要で本日は出かけないことにしていたのに・・・

RJNT 190200Z VRB02KT 9999 FEW030 SCT/// 32/20 Q1010

20200819_rjnt_00ja359c

JA359C C25A SAK

9時過ぎに到着して、まだ駐機中でした。

20200819_rjnt_01ja012g

ふぅぅ、なんとか間に合いました。ダウンウインドでガンライトチェック中。

20200819_rjnt_02ja012g

ローアプローチは見れませんでしたが、サイテーションさんのお見合い。

20200819_rjnt_03ja012g

CS12 JA012G C25C CAB

20200819_rjnt_04ja012g

本日は、ライトとコムチェックのみの模様

20200819_rjnt_05ja9878

JA9878 AS350B THK

午後から出動でした。

20200819_rjnt_06ja359c

静岡のサイテーションさんが出発

20200819_rjnt_07ja359c

RWは02

20200819_rjnt_08ja359c

20200819_rjnt_09ja012g

RW02エンドで、地上でのガンライト、コムチェックを終わって次の準備をしていましたが、静岡さん出発で、エプロンに帰ってきました。

20200819_rjnt_10ja012g

T2から入ってT1でWAIT

20200819_rjnt_11ja359c

静岡さんRWで180ターンして、離陸

20200819_rjnt_12ja359c

珍しいシーンが記録できました。

20200819_rjnt_13ja359c

どんな所要だったんですかね?

20200819_rjnt_14ja012g

12GさんもRW02へ

20200819_rjnt_15ja012g

20200819_rjnt_16ja012g

静岡さんに負けないショートテイクオフ

20200819_rjnt_17ja012g

またお越しを

20200819_rjnt_18ja012g

クライムしてVで小松へ

20200819_rjnt_19ja11aj

ここんとこ毎日飛んでる測量屋さん

20200819_rjnt_20ja11aj

20200819_rjnt_21ja11aj

JA11AJ C208A ASK

20200819_rjnt_22ja11aj

ここが定位置

20200819_rjnt_23ja6512

JA6512↓ AS350B3 AKF

JA6515さんは操縦訓練なのかな? 能登行っていた。

JA332T→←

JA12CJ↓↑

 

| | コメント (0)

2020/08/18

定点 富山空港 2020/8/18 tue

異例ずくめのお盆も終わって、夏の終わりの北風が吹いてきてます。

RJNT 172300Z 01005KT 9999 -SHRA FEW007 SCT015 BKN020 27/24 Q1012

20200818_rjnt_00ja81an

ANA313 RJTT-RJNT JA81AN B737-881

午前はこれ一本。北風でRNAV02アプローチ

RJNT 180000Z 36004KT 300V040 9999 FEW007 SCT020 BKN/// 28/24 Q1013

20200818_rjnt_01ja139t

JA139T AW139 富山県警察

朝一の救難を終えて、補給中

20200818_rjnt_02ja6515

のっぺりとした6515 手前のドラム缶は?

20200818_rjnt_03himawari

公園には向日葵さんが、咲いています。

20200818_rjnt_04ja81an

20200818_rjnt_04aja81an

ANA316 RJNT-RJTT JA81AN B737-881

20200818_rjnt_05ja81an

お盆とともに、NEOも終わり。

20200818_rjnt_06terminal

静かなターミナルが戻ってきました。違う!

20200818_rjnt_07terminal

次の便は、夕方

20200818_rjnt_08ja9878

JA9878 AS350B THK

RJNT 180100Z VRB02KT 9999 FEW020 BKN/// 30/24 Q1012

20200818_rjnt_09ja139t

レスキューの合間にも、訓練が入ります。

###

 

###

20200818_rjnt_10ja6515

「つるぎ」さんが飛びたったら、おもむろに登場。

20200818_rjnt_11ja6515

朝日さんも出発。

20200818_rjnt_12ja6515

JA6515↑ AS350B3 AKF

20200818_rjnt_13socks

新しい風靴下

20200818_rjnt_14ja119w

先ほど、なにやら準備してましたが、飛ばんのかい。

20200818_rjnt_15ja119w

はい、本日は広報用の撮影会

20200818_rjnt_16ja119w

なんか、みんな楽しそう。

20200818_rjnt_17ja11aj

JA11AJ↓ C208A ASK

20200818_rjnt_18ja119w

撮影会終わって、格納。

RJNT 180200Z 36003KT 280V060 9999 FEW020 BKN/// 30/23 Q1011

20200818_rjnt_19ja9878

JA9878↑

20200818_rjnt_20ja139t

JA139T↓

20200818_rjnt_21ja139t

午後も山へS&Rで出動して、富大に搬送。

「とやま」さんは、午後水難救助訓練へ

 

| | コメント (0)

2020/08/14

定点 富山空港 2020/8/14 fri

酷暑のお盆。灼熱地獄かと思いきや、いきなり雷神さんがやってきて、ずぶ濡れとなる、不安定な日和が続いています。

RJNT 132300Z 15003KT 020V200 9999 FEW030 30/22 Q1009

20200814_rjnt_00n

FDX5230 KMEM-RKSI N845FD B777-FS2

コロナ禍ですが、見上げれば貨物便。

20200814_rjnt_01ja213a

今日は、一日灼熱の予報。

20200814_rjnt_02plh08

今日のお船は、PLH08「えちご」さん

20200814_rjnt_03ja213a

すっかり見慣れてきた、大きいエンジン。

20200814_rjnt_04ja213a

ANA313 RJTT-RJNT JA213A A320-271N

20200814_rjnt_05ja213a

これにて一旦、小生もお盆行事へ

RJNT 140400Z 28010KT 240V340 9999 FEW030 34/24 Q1008

20200814_rjnt_06ja119w

お盆行事を終えて、午後活です。

20200814_rjnt_07ja139t

県警さんは、いつでも出れるように待機中。

20200814_rjnt_08ja119w

初見のスターター

20200814_rjnt_09ja119w

今日は、調整の模様

20200814_rjnt_10ja119w

ぶんぶん回して、確認中。

20200814_rjnt_11ja119w

JA119W AW139 富山県消防防災

耐空を終えてからの初見となりました。本日は出動無。それも良し。

RJNT 140500Z 28011KT 250V310 9999 FEW030 34/23 Q1007

20200814_rjnt_12ja83an

北海道へも行きたいよねー

20200814_rjnt_13ja83an

ANA1182 RJCC-RJNT JA83AN B737-881

RJNT 140700Z 27009KT 230V320 9999 FEW030 33/24 Q1007

20200814_rjnt_14ja83an

20200814_rjnt_15ja83an

ANA320 RJNT-RJTT JA83AN B737-881

20200814_rjnt_16ja83an

青空に青が映えます。

20200814_rjnt_17syoumyou

下界からも、称名滝が涼を誘います。

| | コメント (0)

2020/08/13

趣味的航空路誌改訂情報 2020/8/13 thu

趣味的航空路誌改訂情報 2020/8/13 thu
8月13日の航空路誌改訂から、めぼしいものをピックアップ。これはあくまでも小生が趣味的にメモとして記録しているものです。

〇捜索救難機関の飛行機の配置の改正
CC:MRG FR:MRG/SRG FF:del

〇飛行場(AD)に記載される地図の種類の改正

〇航空路の改正
Revision of AWY : V28

〇RNAV 経路の改正
Revision of RNAV route : Y28, Y285

〇直行経路の設定等
Establishment of direct route:LEMUM - KOGAR, ASEKI - HAGAR
Revision of direct route : SHT - LEMUM, SWE - ASARI
Abolishment of direct route : LEMIX - KOGAR, TUKBA - HAGAR, TOHNE - LEMIX

〇位置通報点の設定等
Establishment of reporting point :
ASEKI アセキ, BANDO バンドウ, KIDOR キダー, LEMUM レマム, USIKU ウシク
Revision of reporting point :
ASARI, GAMAR, HAGAR, JOBAN, KOGAR, ONGHA
Abolishment of reporting point : KOKAI, LEMIX, TEGAR, TUKBA

〇周防VOR/DME(SWE) の更新

〇福井空港におけるVisual REP チャートの記載事項の変更等

〇普天間飛行場における飛行場図の改正

〇広島空港における飛行の方式の記載事項の変更

〇成田国際空港における飛行場標識の改正

〇成田国際空港における局地交通諸規則の改正

〇北九州空港における騒音軽減方式の改正

〇北九州空港における飛行の方式の改正
ASARI TWO DEPARTURE → ASARI THREE DEPARTURE
ONGHA ONE DEPARTURE → ONGHA TWO DEPARTURE
VOR/DME/ILS RWY18 → ILS Z or LOC Z RWY18
VOR/DME/LOC RWY18 → LOC Y RWY18
VOR/DME A → VOR A
VOR/DME B → VOR B
MATSUYAMA TRANSITION
MUSASHI TRANSITION
RNAV(RNP) RWY18
RNAV(RNP) RWY36

〇新石垣空港におけるINS チェックポイントの改正等

〇新潟空港における飛行の方式の改正
INAHO EAST ARRIVAL
GOSEN EAST ARRIVAL
MAGNA EAST ARRIVAL
TERAD EAST ARRIVAL
INAHO WEST ARRIVAL
GOSEN WEST ARRIVAL
MAGNA WEST ARRIVAL
TERAD WEST ARRIVAL

〇大館能代空港における飛行場障害物の記載変更

〇下総TACAN(SHT) の更新等

〇下総飛行場の飛行の方式の改正
NIKKO ONE DEPARTURE → NIKKO TWO DEPARTURE
WEST FOUR DEPARTURE → WEST FIVE DEPARTURE
TSUGA THREE DEPARTURE → TSUGA FOUR DEPARTURE
KOGAR ONE DEPARTURE → KOGAR TWO DEPARTURE
ILS Z or LOC Z RWY19
ILS Y or LOC Y RWY19
TACAN RWY19

〇庄内空港における飛行の方式の改正
ILS Z or LOC Z RWY09
ILS Y or LOC Y RWY09
LOC RWY27
VOR RWY09
RNAV(GNSS) Z RWY27

〇但馬飛行場の磁気偏差の改正等


□福島空港におけるヘリコプター用計器進入方式の試行運用について
2018.4.26 -
1.対象航空機
ヘリコプターであって、防災関連等での飛行を目的とするものを対象とする。
2-1. 位置通報点の一時設定
ASINA アシナ, HATTO ハット, YASSI ヤッシー
2-2. 福島空港における計器進入方式の一時設定
COPTER ILS X or LOC X RWY01
COPTER VOR RWY01
COPTER VOR RWY19

□南紀白浜空港におけるヘリコプター用計器進入方式の試行運用について
2019.6.20 -
位置通報点の一時設定
TEPAK テパック, VENEK ベネック
南紀白浜空港における計器進入方式の一時設定
COPTER LOC Y RWY15
COPTER VOR RWY33

□種子島空港におけるヘリコプター用計器進入方式の試行運用について
2019.6.20 -
位置通報点の一時設定
GULIX グリックス, NOKIS ノキス
種子島空港における計器進入方式の一時設定
COPTER ILS Y or LOC Y RWY31
COPTER VOR Y RWY13

□静岡空港におけるヘリコプター用計器進入方式の試行運用について
2019.6.20 -
位置通報点の一時設定
RUPIX ルピックス
静岡空港における計器飛行方式の一時設定
COPTER MAKINOHARA REVERSAL ONE DEPARTURE
COPTER ILS X or LOC X RWY30

□小型航空機用RNAV経路の試行運用について
小型航空機用RNAV経路の行われる。 2020.1.2 -
経路 KY11,KY13,KY15,KY17,KY21,KY23,KY25

□周防VOR/DME(SWE)の運用再開 2020.8.12

□東京国際空港におけるGBASによる進入方式の試行運用について
2020.7.16 -  運用時間 2300JST - 0600JST
GBAS(Ground Based Augmentation System:地上直接送信型衛星航法補助施設)による進入方式の試行運用が行われる。
東京国際空港における GBASによる進入方式の一時設定
GLS Y RWY34L
GLS Y RWY34R

□無操縦者航空機 (グローバルホーク) の飛行について
横田飛行場周辺の空域において飛行が実施される - 2020.10.31

□札幌飛行場におけるターミナルレーダー管制業務の運用休止について
整備のため運用休止 2020.8.1 - 2021.1.31

□館山飛行場における GCAの運用休止について
工事のため運用休止 2020.8.3 - 2021.1.29

□防府TACAN (FMT) の運用休止及び代替措置について
工事のため運用休止 2020.8.13 - 2021.3.24
代替TACANの一時運用 防府TACAN(WWT)

□静浜TACAN (YZT) の運用休止及び代替措置について
工事のため運用休止 2020.9.10 - 2021.4.21
代替TACANの一時運用 静浜TACAN(ZZT)

 

 

| | コメント (0)

2020/08/08

定点 富山空港 2020/8/8 sat

暦の巡りにより、世間は今日からお盆モードの様。

RJNT 072300Z 05005KT 020V080 8000 VCSH FEW003 BKN008 BKN080 25/23 Q1008

20200808_rjnt_00kirishimamaru2

第二霧島丸 JD3314 JP 霧島汽船/鶴見サンマリン

20200808_rjnt_01kirishimamaru2

穏やかと思いきゃ、台風4号崩れに引っ張られた前線で、うねりがあります。

20200808_rjnt_02ja216a

ANA313 RJTT-RJNT JA216A A320-271N

RJNT 080000Z VRB03KT 9000 VCSH FEW005 BKN012 BKN120 26/23 Q1008

20200808_rjnt_03ja216a

世の中お盆モードなのですが・・・

20200808_rjnt_04ja216a

ANA316 RJNT-RJTT JA216A A320-271N

RJNT 080100Z 34006KT 9000 -SHRA FEW007 SCT120 OVC/// 26/23 Q1008

20200808_rjnt_05karasu

こう見ると、アマビエ様

20200808_rjnt_06ja64an

ANA315 RJTT-RJNT JA64AN B737-881

20200808_rjnt_07arv

昨日からお盆期間中だけ復活した札幌便

20200808_rjnt_08ja9878

JA9878 AS350B THK お休み

RJNT 080200Z 33006KT 9999 -SHRA FEW007 SCT010 BKN060 26/24 Q1008

20200808_rjnt_09ja64an

久しぶりの札幌便で、お見送りも熱が入ります。

20200808_rjnt_10ja64an

ANA1181 RJNT-RJCC JA64AN B737-881

20200808_rjnt_11ja64an

でも需要は、低迷 異例のお盆です。

20200808_rjnt_12rantan

2Fでは台湾ランタン祭りが始まってました。

20200808_rjnt_13rantan

初見の物ばかりで、ほとんどが鳥です。

お昼に土砂振りがあり、撤収しました。夕方には、Wさんが利賀へ捜索に、Tさんが昨日発生した負傷者を収容の為、富山県奥地へそれぞれ出動。帰還が同じ時間になって、二機並びが見れたかも。

 

| | コメント (0)

2020/08/04

定点 富山空港 2020/8/4 tue

8月になりましが、今年の浜は海水浴客のいない静かな浜です。ほんとに、誰も来とらんがい。

RJNT 032300Z 20003KT 170V230 9999 FEW080 SCT200 BKN/// 27/23 Q1014

20200804_rjnt_00ja83an

ANA313 RJTT-RJNT JA83AN B737-881

20200804_rjnt_01silverwind

SILVER WIND 9LU2463 SL

RJNT 040000Z 23003KT 130V310 9999 FEW080 BKN/// 30/24 Q1014

20200804_rjnt_02ja83an

ANA316 RJNT-RJTT JA83AN B737-881

RJNT 040100Z VRB02KT 9999 FEW030 31/22 Q1014

20200804_rjnt_03ja139t

あら早く引き出されたと思ったら、御座所付。

###

###

20200804_rjnt_04ja139t

JA139T AW139 富山県警察 お偉い方フライト

RJNT 040200Z 31004KT 230V360 9999 FEW030 33/23 Q1014

20200804_rjnt_05ja9878

JA9878↓ AS350B THK

20200804_rjnt_06ja6502

JA6502↓ AS350B3 AKF

20200804_rjnt_07ja6502

JA6502↑

###

###

20200804_rjnt_08ja139t

エンジンシャットダウン

富山で一番暑い記録の出る富山空港です。お昼で撤収しました。

後談:午後から所要を済ませて、ツイッターをゴニョゴニョしてたら、ありゃー大失態。長い間留守にしていた防災の「とやま」さんが帰って来た。夏の午後はあり得ないと勝手に思いこんでいたら、なんと雄山神社詣でをして、平野に降りてくるではないですか。長い間、待ってたよー。しばらく訓練強化になるかな。

 

| | コメント (0)

2020/08/02

梅雨明け 富山空港 2020/8/2 sun

葉月に突入して、ようやく梅雨明け。平年より9日も遅く、久しぶりに一日お天道様が拝めそうです。

RJNT 012200Z 26003KT 9999 FEW015 BKN/// 24/20 Q1013

20200801_rjnt_00ja139t

コロナで遅れてはいますが、夏山は始まっています。朝から救助事案。

RJNT 012300Z VRB02KT 9999 FEW020 BKN/// 27/21 Q1013

20200801_rjnt_01ja139t

JA139T AW139 富山県警察

20200801_rjnt_02eva

南部出張所の救急車到着。

###

###

20200801_rjnt_03ja70an

ANA313 RJTT-RJNT JA70AN B737-881

20200801_rjnt_04ja70an

脚立がないと、夏草

20200801_rjnt_05ja139t

無事、救急隊に移管され

20200801_rjnt_06ja139t

すぐ整備に 調整してあったのか救急隊は、すぐに出発。

RJNT 020000Z VRB02KT 9999 FEW030 BKN/// 28/20 Q1013

20200801_rjnt_07ja9878

JA9878↓ AS350B THK

20200801_rjnt_08ja70an

航空需要は蒸発したと表現されますが、今朝もお見送り

20200801_rjnt_09ja70an

ANA316 RJNT-RJTT JA70AN B737-881

20200801_rjnt_10ja70an

RJNT 020100Z 31003KT 240V020 9999 FEW030 BKN/// 29/20 Q1012

20200801_rjnt_11y5701

公園隣接地で、農薬散布

20200801_rjnt_12y5701

巧みな操縦で、あっという間にかたずけていきます。

20200801_rjnt_13ja12aj

JA12AJ↓ C208B ASK この後八尾戻り

20200801_rjnt_14ja10ym

JA10YM→ A109SP SAK 富山県ドクヘリ 砺波事案

RJNT 020200Z 32006KT 240V360 9999 FEW030 SCT200 BKN/// 31/21 Q1012

20200801_rjnt_15ja139t

本日2回目の山岳救助

20200801_rjnt_16ja139t

JA139T↑

20200801_rjnt_17ja201m

JA201M↓ PA-28RT-201T

20200801_rjnt_18ja139t

負傷者は航空隊戻り

RJNT 020300Z 32004KT 250V030 9999 FEW030 SCT200 BKN/// 30/21 Q1012

20200801_rjnt_19ja139t

またしても南部出張所にお世話になります。

この後の外来

JA01PC

JA001X

今日も大活躍の県警航空隊&山岳警備隊 お疲れ様です。立山くんで元気だそう。

 

 

| | コメント (0)

« 2020年7月 | トップページ | 2020年9月 »